createdAt,value
2022-10-14T00:00:05.395Z,100543.03
2022-10-14T00:03:13.866Z,100540.69
2022-10-14T00:06:18.588Z,100545.13
2022-10-14T00:09:20.827Z,100539.41
2022-10-14T00:12:23.252Z,100541.25
2022-10-14T00:15:25.508Z,100542.75
2022-10-14T00:18:28.024Z,100537.16
2022-10-14T00:21:30.928Z,100535.19
2022-10-14T00:24:33.158Z,100520.66
2022-10-14T00:27:35.441Z,100529.84
2022-10-14T00:30:39.741Z,100528.69
2022-10-14T00:33:42.422Z,100534.03
2022-10-14T00:36:46.447Z,100523.34
2022-10-14T00:39:57.040Z,100520.38
2022-10-14T00:43:00.035Z,100518.97
2022-10-14T00:46:02.287Z,100516.97
2022-10-14T00:49:15.065Z,100533.88
2022-10-14T00:52:19.751Z,100529.00
2022-10-14T00:55:22.182Z,100530.19
2022-10-14T00:58:24.493Z,100521.34
2022-10-14T01:01:26.859Z,100515.88
2022-10-14T01:04:29.536Z,100511.81
2022-10-14T01:07:39.142Z,100514.91
2022-10-14T01:10:53.895Z,100524.78
2022-10-14T01:14:11.211Z,100515.94
2022-10-14T01:17:48.034Z,100510.81
2022-10-14T01:20:54.594Z,100515.94
2022-10-14T01:24:24.529Z,100520.69
2022-10-14T01:27:26.716Z,100520.25
2022-10-14T01:30:34.457Z,100518.59
2022-10-14T01:33:40.490Z,100517.41
2022-10-14T01:36:54.628Z,100513.41
2022-10-14T01:40:04.970Z,100510.34
2022-10-14T01:43:08.108Z,100507.03
2022-10-14T01:46:11.370Z,100497.97
2022-10-14T01:49:21.971Z,100509.00
2022-10-14T01:52:27.947Z,100500.50
2022-10-14T01:55:33.744Z,100496.41
2022-10-14T01:58:37.515Z,100491.09
2022-10-14T02:01:39.924Z,100489.00
2022-10-14T02:04:42.480Z,100473.78
2022-10-14T02:07:47.245Z,100494.84
2022-10-14T02:11:04.721Z,100493.44
2022-10-14T02:14:16.045Z,100516.38
2022-10-14T02:17:32.186Z,100494.88
2022-10-14T02:20:44.889Z,100492.81
2022-10-14T02:23:57.606Z,100494.88
2022-10-14T02:27:03.161Z,100483.03
2022-10-14T02:30:07.804Z,100489.63
2022-10-14T02:33:10.401Z,100491.09
2022-10-14T02:36:14.387Z,100484.66
2022-10-14T02:39:22.664Z,100479.31
2022-10-14T02:42:25.012Z,100498.78
2022-10-14T02:45:27.664Z,100494.66
2022-10-14T02:48:30.013Z,100504.13
2022-10-14T02:51:32.967Z,100492.75
2022-10-14T02:54:35.226Z,100496.56
2022-10-14T02:57:37.878Z,100489.56
2022-10-14T03:00:40.169Z,100493.69
2022-10-14T03:03:42.720Z,100490.00
2022-10-14T03:06:45.030Z,100493.00
2022-10-14T03:09:48.786Z,100497.81
2022-10-14T03:12:51.187Z,100489.00
2022-10-14T03:16:03.757Z,100479.66
2022-10-14T03:19:07.881Z,100478.25
2022-10-14T03:22:19.185Z,100492.34
2022-10-14T03:25:21.684Z,100480.34
2022-10-14T03:28:42.707Z,100489.38
2022-10-14T03:31:52.170Z,100478.78
2022-10-14T03:34:59.450Z,100486.34
2022-10-14T03:38:03.556Z,100483.53
2022-10-14T03:41:08.941Z,100469.16
2022-10-14T03:44:11.850Z,100471.16
2022-10-14T03:47:19.791Z,100475.13
2022-10-14T03:50:23.034Z,100469.53
2022-10-14T03:53:28.957Z,100469.25
2022-10-14T03:56:31.561Z,100478.00
2022-10-14T03:59:34.908Z,100483.63
2022-10-14T04:02:37.474Z,100475.03
2022-10-14T04:05:41.198Z,100460.03
2022-10-14T04:08:48.447Z,100475.31
2022-10-14T04:12:00.366Z,100482.28
2022-10-14T04:15:23.038Z,100462.06
2022-10-14T04:18:42.330Z,100454.41
2022-10-14T04:21:47.039Z,100460.84
2022-10-14T04:24:51.288Z,100456.63
2022-10-14T04:27:53.717Z,100449.88
2022-10-14T04:30:58.914Z,100459.38
2022-10-14T04:34:06.506Z,100454.72
2022-10-14T04:37:13.131Z,100456.28
2022-10-14T04:40:36.962Z,100463.16
2022-10-14T04:43:40.306Z,100452.34
2022-10-14T04:46:56.961Z,100457.56
2022-10-14T04:50:01.557Z,100452.44
2022-10-14T04:53:10.591Z,100456.38
2022-10-14T04:56:22.514Z,100458.91
2022-10-14T04:59:31.727Z,100471.84
2022-10-14T05:02:36.858Z,100467.03
2022-10-14T05:05:39.336Z,100462.44
2022-10-14T05:08:41.707Z,100454.06
2022-10-14T05:11:47.243Z,100462.44
2022-10-14T05:14:55.094Z,100473.13
2022-10-14T05:18:07.049Z,100472.00
2022-10-14T05:21:32.587Z,100476.81
2022-10-14T05:24:50.307Z,100475.25
2022-10-14T05:27:53.993Z,100473.47
2022-10-14T05:30:57.048Z,100465.25
2022-10-14T05:33:59.469Z,100472.50
2022-10-14T05:37:02.385Z,100481.41
2022-10-14T05:40:11.345Z,100476.13
2022-10-14T05:43:13.666Z,100483.75
2022-10-14T05:46:19.936Z,100478.00
2022-10-14T05:49:28.764Z,100470.38
2022-10-14T05:52:34.302Z,100474.06
2022-10-14T05:55:42.362Z,100472.06
2022-10-14T05:58:44.923Z,100475.56
2022-10-14T06:01:47.204Z,100480.72
2022-10-14T06:04:49.601Z,100489.91
2022-10-14T06:07:52.055Z,100493.72
2022-10-14T06:10:54.890Z,100483.75
2022-10-14T06:13:57.195Z,100498.47
2022-10-14T06:17:00.309Z,100502.50
2022-10-14T06:20:03.224Z,100499.91
2022-10-14T06:23:05.448Z,100495.06
2022-10-14T06:26:09.869Z,100504.84
2022-10-14T06:29:12.197Z,100507.25
2022-10-14T06:32:14.474Z,100501.84
2022-10-14T06:35:16.785Z,100497.56
2022-10-14T06:38:19.130Z,100505.03
2022-10-14T06:41:21.469Z,100508.19
2022-10-14T06:44:23.817Z,100513.91
2022-10-14T06:47:26.096Z,100508.00
2022-10-14T06:50:28.419Z,100511.38
2022-10-14T06:53:30.828Z,100513.34
2022-10-14T06:56:34.446Z,100509.50
2022-10-14T06:59:39.084Z,100506.94
2022-10-14T07:02:41.364Z,100503.22
2022-10-14T07:05:44.128Z,100506.91
2022-10-14T07:08:46.513Z,100506.53
2022-10-14T07:11:48.814Z,100514.09
2022-10-14T07:14:51.040Z,100516.13
2022-10-14T07:17:53.374Z,100517.75
2022-10-14T07:20:55.592Z,100526.59
2022-10-14T07:23:57.831Z,100513.91
2022-10-14T07:27:00.228Z,100535.53
2022-10-14T07:30:02.763Z,100509.75
2022-10-14T07:33:05.017Z,100510.44
2022-10-14T07:36:15.047Z,100513.91
2022-10-14T07:39:19.704Z,100511.28
2022-10-14T07:42:22.449Z,100496.59
2022-10-14T07:45:24.910Z,100499.44
2022-10-14T07:48:45.249Z,100497.53
2022-10-14T07:51:54.497Z,100504.09
2022-10-14T07:54:56.793Z,100511.03
2022-10-14T07:57:59.091Z,100503.84
2022-10-14T08:01:01.440Z,100512.75
2022-10-14T08:04:03.854Z,100496.75
2022-10-14T08:07:06.196Z,100498.09
2022-10-14T08:10:09.095Z,100493.25
2022-10-14T08:13:11.542Z,100490.69
2022-10-14T08:16:31.562Z,100498.31
2022-10-14T08:19:33.853Z,100492.19
2022-10-14T08:22:36.162Z,100493.56
2022-10-14T08:25:40.304Z,100499.59
2022-10-14T08:28:42.707Z,100493.63
2022-10-14T08:31:45.074Z,100499.91
2022-10-14T08:34:47.349Z,100486.88
2022-10-14T08:37:59.554Z,100478.56
2022-10-14T08:41:04.885Z,100484.84
2022-10-14T08:44:25.782Z,100480.03
2022-10-14T08:47:37.637Z,100467.44
2022-10-14T08:51:16.098Z,100463.16
2022-10-14T08:54:35.254Z,100460.41
2022-10-14T08:57:51.346Z,100467.19
2022-10-14T09:00:53.908Z,100466.66
2022-10-14T09:04:07.827Z,100467.66
2022-10-14T09:07:19.030Z,100464.13
2022-10-14T09:10:27.390Z,100472.66
2022-10-14T09:13:35.148Z,100476.59
2022-10-14T09:16:40.181Z,100467.63
2022-10-14T09:19:50.706Z,100469.22
2022-10-14T09:23:05.633Z,100477.88
2022-10-14T09:26:12.240Z,100472.22
2022-10-14T09:29:27.336Z,100473.19
2022-10-14T09:32:40.951Z,100465.38
2022-10-14T09:35:43.862Z,100467.06
2022-10-14T09:38:52.854Z,100472.94
2022-10-14T09:42:35.789Z,100468.16
2022-10-14T09:45:59.817Z,100462.19
2022-10-14T09:49:02.234Z,100466.53
2022-10-14T09:52:05.008Z,100461.53
2022-10-14T09:55:19.281Z,100461.50
2022-10-14T09:58:35.938Z,100464.16
2022-10-14T10:01:41.652Z,100456.53
2022-10-14T10:04:47.574Z,100464.41
2022-10-14T10:08:06.900Z,100457.44
2022-10-14T10:11:14.054Z,100453.59
2022-10-14T10:14:32.465Z,100452.31
2022-10-14T10:17:38.532Z,100460.13
2022-10-14T10:20:40.871Z,100461.41
2022-10-14T10:24:03.484Z,100451.94
2022-10-14T10:27:26.432Z,100451.56
2022-10-14T10:30:43.818Z,100446.19
2022-10-14T10:33:56.385Z,100441.00
2022-10-14T10:37:06.029Z,100439.50
2022-10-14T10:40:17.836Z,100437.06
2022-10-14T10:43:35.086Z,100428.38
2022-10-14T10:46:37.402Z,100428.25
2022-10-14T10:49:51.056Z,100421.19
2022-10-14T10:53:18.516Z,100419.88
2022-10-14T10:56:39.512Z,100427.69
2022-10-14T11:00:13.186Z,100411.47
2022-10-14T11:03:21.586Z,100420.19
2022-10-14T11:07:12.068Z,100407.91
2022-10-14T11:10:36.020Z,100411.34
2022-10-14T11:13:57.626Z,100402.97
2022-10-14T11:34:56.788Z,100397.72
2022-10-14T11:38:09.871Z,100371.28
2022-10-14T11:41:36.958Z,100380.44
2022-10-14T13:06:03.843Z,100325.25
2022-10-14T13:14:35.512Z,100318.88
2022-10-14T13:17:48.393Z,100305.84
2022-10-14T13:41:30.600Z,100310.53
2022-10-14T13:44:34.569Z,100283.97
2022-10-14T13:47:37.001Z,100296.53
2022-10-14T13:50:39.409Z,100281.91
2022-10-14T13:58:23.736Z,100275.00
2022-10-14T14:07:02.964Z,100277.22
2022-10-14T14:10:10.258Z,100275.53
2022-10-14T14:13:13.494Z,100284.59
2022-10-14T14:16:24.366Z,100278.72
2022-10-14T14:19:33.078Z,100279.09
2022-10-14T14:28:40.707Z,100284.44
2022-10-14T14:35:12.675Z,100285.16
2022-10-14T14:38:33.137Z,100281.91
2022-10-14T14:41:35.563Z,100272.16
2022-10-14T14:44:39.293Z,100279.47
2022-10-14T14:47:41.851Z,100276.22
2022-10-14T14:50:45.122Z,100277.03
2022-10-14T14:53:51.489Z,100290.00
2022-10-14T14:57:01.240Z,100278.44
2022-10-14T15:00:06.456Z,100287.38
2022-10-14T15:03:09.165Z,100278.47
2022-10-14T15:06:15.829Z,100283.09
2022-10-14T15:09:30.776Z,100276.91
2022-10-14T15:12:39.361Z,100279.88
2022-10-14T15:15:53.707Z,100262.88
2022-10-14T15:19:37.401Z,100280.41
2022-10-14T15:22:43.597Z,100283.41
2022-10-14T15:25:57.399Z,100280.44
2022-10-14T15:29:16.612Z,100278.81
2022-10-14T15:32:20.598Z,100276.16
2022-10-14T15:35:24.272Z,100269.41
2022-10-14T15:38:27.118Z,100268.88
2022-10-14T15:41:29.774Z,100275.66
2022-10-14T15:44:32.108Z,100278.06
2022-10-14T15:47:35.203Z,100262.44
2022-10-14T15:50:39.644Z,100280.50
2022-10-14T15:53:42.016Z,100275.91
2022-10-14T15:56:47.052Z,100282.38
2022-10-14T15:59:49.404Z,100282.34
2022-10-14T16:03:00.307Z,100296.38
2022-10-14T16:06:02.632Z,100296.94
2022-10-14T16:09:05.050Z,100288.25
2022-10-14T16:12:14.332Z,100297.94
2022-10-14T16:15:16.694Z,100304.38
2022-10-14T16:18:19.226Z,100302.38
2022-10-14T16:21:21.497Z,100299.91
2022-10-14T16:24:27.236Z,100313.63
2022-10-14T16:27:29.700Z,100315.22
2022-10-14T16:30:31.988Z,100313.31
2022-10-14T16:33:34.378Z,100315.38
2022-10-14T16:36:38.178Z,100321.22
2022-10-14T16:39:40.888Z,100326.28
2022-10-14T16:42:44.932Z,100318.41
2022-10-14T16:45:47.349Z,100325.59
2022-10-14T16:48:49.797Z,100315.78
2022-10-14T16:51:52.122Z,100327.63
2022-10-14T16:54:54.483Z,100327.38
2022-10-14T16:57:56.728Z,100328.38
2022-10-14T17:00:59.168Z,100321.59
2022-10-14T17:04:01.718Z,100337.50
2022-10-14T17:07:07.591Z,100336.63
2022-10-14T17:10:10.540Z,100324.97
2022-10-14T17:13:13.293Z,100339.25
2022-10-14T17:16:15.851Z,100336.81
2022-10-14T17:19:18.882Z,100324.63
2022-10-14T17:22:21.898Z,100338.56
2022-10-14T17:25:24.414Z,100311.81
2022-10-14T17:28:26.836Z,100328.72
2022-10-14T17:31:29.561Z,100322.50
2022-10-14T17:34:32.078Z,100326.81
2022-10-14T17:37:38.073Z,100317.09
2022-10-14T17:40:40.290Z,100331.06
2022-10-14T17:43:42.872Z,100331.47
2022-10-14T17:46:45.447Z,100323.97
2022-10-14T17:49:48.252Z,100330.91
2022-10-14T17:52:50.687Z,100337.63
2022-10-14T17:55:55.447Z,100316.59
2022-10-14T17:59:02.391Z,100339.44
2022-10-14T18:02:04.820Z,100336.72
2022-10-14T18:05:07.488Z,100329.63
2022-10-14T18:08:14.160Z,100330.94
2022-10-14T18:11:16.778Z,100314.16
2022-10-14T18:14:19.241Z,100329.63
2022-10-14T18:17:22.179Z,100328.13
2022-10-14T18:20:26.462Z,100337.00
2022-10-14T18:23:30.852Z,100342.97
2022-10-14T18:26:34.898Z,100343.63
2022-10-14T18:29:38.280Z,100339.38
2022-10-14T18:32:40.701Z,100339.50
2022-10-14T18:35:46.401Z,100346.38
2022-10-14T18:38:57.705Z,100342.81
2022-10-14T18:42:00.014Z,100347.81
2022-10-14T18:45:02.303Z,100332.44
2022-10-14T18:48:04.756Z,100325.16
2022-10-14T18:51:08.123Z,100335.69
2022-10-14T18:54:21.130Z,100337.38
2022-10-14T18:57:23.752Z,100333.25
2022-10-14T19:00:26.969Z,100330.81
2022-10-14T19:03:29.224Z,100331.44
2022-10-14T19:06:32.867Z,100343.81
2022-10-14T19:09:35.256Z,100346.81
2022-10-14T19:12:43.549Z,100344.31
2022-10-14T19:15:51.455Z,100354.88
2022-10-14T19:18:58.477Z,100357.47
2022-10-14T19:22:01.138Z,100346.81
2022-10-14T19:25:03.860Z,100360.59
2022-10-14T19:28:06.262Z,100364.78
2022-10-14T19:31:14.092Z,100361.81
2022-10-14T19:34:16.961Z,100362.44
2022-10-14T19:37:19.264Z,100352.69
2022-10-14T19:40:23.691Z,100351.59
2022-10-14T19:43:26.987Z,100358.06
2022-10-14T19:46:29.757Z,100351.31
2022-10-14T19:49:32.080Z,100354.31
2022-10-14T19:52:34.414Z,100353.19
2022-10-14T19:55:37.230Z,100359.38
2022-10-14T19:58:43.909Z,100363.16
2022-10-14T20:01:47.381Z,100357.25
2022-10-14T20:04:49.869Z,100371.25
2022-10-14T20:07:54.506Z,100360.75
2022-10-14T20:10:56.890Z,100373.34
2022-10-14T20:13:59.520Z,100365.88
2022-10-14T20:17:02.020Z,100382.44
2022-10-14T20:20:04.947Z,100380.53
2022-10-14T20:23:07.173Z,100358.59
2022-10-14T20:26:13.483Z,100367.94
2022-10-14T20:29:15.878Z,100377.34
2022-10-14T20:32:18.176Z,100374.38
2022-10-14T20:35:20.568Z,100361.84
2022-10-14T20:38:22.898Z,100364.53
2022-10-14T20:41:26.632Z,100355.75
2022-10-14T20:44:28.951Z,100360.31
2022-10-14T20:47:32.503Z,100355.03
2022-10-14T20:50:34.783Z,100351.16
2022-10-14T20:53:37.190Z,100351.97
2022-10-14T20:56:39.961Z,100362.06
2022-10-14T20:59:42.814Z,100365.63
2022-10-14T21:02:45.189Z,100356.75
2022-10-14T21:05:47.497Z,100369.94
2022-10-14T21:08:51.662Z,100368.81
2022-10-14T21:14:56.226Z,100355.59
2022-10-14T21:17:58.790Z,100341.88
2022-10-14T21:21:01.278Z,100350.78
2022-10-14T21:24:03.955Z,100357.34
2022-10-14T21:27:06.418Z,100355.81
2022-10-14T21:30:09.485Z,100358.41
2022-10-14T21:33:11.748Z,100365.97
2022-10-14T21:36:15.479Z,100361.75
2022-10-14T21:39:18.762Z,100354.44
2022-10-14T21:42:21.334Z,100356.22
2022-10-14T21:45:23.854Z,100347.38
2022-10-14T21:48:26.489Z,100351.84
2022-10-14T21:51:30.086Z,100344.88
2022-10-14T21:54:32.414Z,100339.19
2022-10-14T21:57:34.691Z,100339.50
2022-10-14T22:00:36.908Z,100343.25
2022-10-14T22:03:39.996Z,100352.66
2022-10-14T22:06:42.351Z,100336.13
2022-10-14T22:09:45.044Z,100332.94
2022-10-14T22:12:47.307Z,100333.75
2022-10-14T22:15:49.615Z,100332.69
2022-10-14T22:18:53.674Z,100340.09
2022-10-14T22:21:57.701Z,100337.59
2022-10-14T22:24:59.969Z,100323.44
2022-10-14T22:28:02.957Z,100328.00
2022-10-14T22:31:16.592Z,100333.59
2022-10-14T22:34:18.858Z,100326.72
2022-10-14T22:37:21.737Z,100332.38
2022-10-14T22:40:24.285Z,100335.38
2022-10-14T22:43:26.522Z,100334.31
2022-10-14T22:46:31.035Z,100342.97
2022-10-14T22:49:33.353Z,100342.38
2022-10-14T22:52:35.592Z,100342.53
2022-10-14T22:55:37.869Z,100339.38
2022-10-14T22:58:40.449Z,100342.72
2022-10-14T23:01:43.312Z,100342.53
2022-10-14T23:04:45.653Z,100332.16
2022-10-14T23:07:48.224Z,100333.59
2022-10-14T23:10:51.744Z,100335.97
2022-10-14T23:13:54.178Z,100330.97
2022-10-14T23:16:56.529Z,100329.25
2022-10-14T23:19:58.900Z,100331.84
2022-10-14T23:23:01.225Z,100349.06
2022-10-14T23:26:04.103Z,100342.81
2022-10-14T23:29:08.744Z,100350.59
2022-10-14T23:32:11.062Z,100342.03
2022-10-14T23:35:13.451Z,100336.47
2022-10-14T23:38:15.710Z,100341.59
2022-10-14T23:41:18.816Z,100357.41
2022-10-14T23:44:21.223Z,100354.69
2022-10-14T23:47:23.722Z,100346.69
2022-10-14T23:50:26.249Z,100341.50
2022-10-14T23:53:28.940Z,100351.34
2022-10-14T23:56:31.253Z,100347.75
2022-10-14T23:59:33.579Z,100348.22
